sensor_id;sensor_type;location;lat;lon;timestamp;pressure;altitude;pressure_sealevel;temperature;humidity
48882;BME280;57063;51.406;-2.402;2023-03-25T00:01:20;98856.41;;;11.89;62.18
48882;BME280;57063;51.406;-2.402;2023-03-25T00:03:50;98871.84;;;11.69;63.38
48882;BME280;57063;51.406;-2.402;2023-03-25T00:06:18;98869.16;;;11.81;62.96
48882;BME280;57063;51.406;-2.402;2023-03-25T00:08:43;98866.38;;;11.63;63.58
48882;BME280;57063;51.406;-2.402;2023-03-25T00:11:08;98881.72;;;12.34;61.60
48882;BME280;57063;51.406;-2.402;2023-03-25T00:13:35;98862.25;;;11.91;61.41
48882;BME280;57063;51.406;-2.402;2023-03-25T00:16:02;98866.47;;;11.92;61.57
48882;BME280;57063;51.406;-2.402;2023-03-25T00:18:29;98872.44;;;11.92;61.64
48882;BME280;57063;51.406;-2.402;2023-03-25T00:20:59;98864.13;;;11.79;61.22
48882;BME280;57063;51.406;-2.402;2023-03-25T00:23:27;98885.38;;;11.92;61.75
48882;BME280;57063;51.406;-2.402;2023-03-25T00:25:53;98885.66;;;12.09;60.95
48882;BME280;57063;51.406;-2.402;2023-03-25T00:28:26;98875.47;;;11.97;61.15
48882;BME280;57063;51.406;-2.402;2023-03-25T00:30:52;98868.66;;;12.16;61.00
48882;BME280;57063;51.406;-2.402;2023-03-25T00:33:18;98889.53;;;11.74;61.91
48882;BME280;57063;51.406;-2.402;2023-03-25T00:35:43;98877.03;;;11.79;61.08
48882;BME280;57063;51.406;-2.402;2023-03-25T00:38:12;98869.84;;;11.92;60.95
48882;BME280;57063;51.406;-2.402;2023-03-25T00:40:38;98875.19;;;12.01;60.75
48882;BME280;57063;51.406;-2.402;2023-03-25T00:43:05;98937.19;;;11.81;100.00
48882;BME280;57063;51.406;-2.402;2023-03-25T00:45:31;98918.38;;;11.29;100.00
48882;BME280;57063;51.406;-2.402;2023-03-25T00:47:56;98912.59;;;11.37;100.00
48882;BME280;57063;51.406;-2.402;2023-03-25T00:50:22;98896.31;;;11.65;100.00
48882;BME280;57063;51.406;-2.402;2023-03-25T00:52:49;98875.38;;;11.59;79.90
48882;BME280;57063;51.406;-2.402;2023-03-25T00:55:15;98863.09;;;11.31;69.91
48882;BME280;57063;51.406;-2.402;2023-03-25T00:57:41;98872.53;;;11.62;68.38
48882;BME280;57063;51.406;-2.402;2023-03-25T01:00:09;98889.16;;;11.78;66.82
48882;BME280;57063;51.406;-2.402;2023-03-25T01:02:36;98861.78;;;11.56;66.04
48882;BME280;57063;51.406;-2.402;2023-03-25T01:05:05;98903.91;;;11.88;66.75
48882;BME280;57063;51.406;-2.402;2023-03-25T01:07:31;98875.38;;;11.59;67.77
48882;BME280;57063;51.406;-2.402;2023-03-25T01:09:59;98873.00;;;11.96;66.92
48882;BME280;57063;51.406;-2.402;2023-03-25T01:12:24;98899.31;;;11.70;67.47
48882;BME280;57063;51.406;-2.402;2023-03-25T01:14:52;98901.00;;;11.81;67.80
48882;BME280;57063;51.406;-2.402;2023-03-25T01:17:17;98885.34;;;11.83;67.24
48882;BME280;57063;51.406;-2.402;2023-03-25T01:19:43;98885.19;;;11.74;67.15
48882;BME280;57063;51.406;-2.402;2023-03-25T01:22:08;98873.44;;;11.41;68.09
48882;BME280;57063;51.406;-2.402;2023-03-25T01:24:34;98883.78;;;11.51;67.65
48882;BME280;57063;51.406;-2.402;2023-03-25T01:27:00;98891.50;;;11.91;67.30
48882;BME280;57063;51.406;-2.402;2023-03-25T01:29:26;98884.25;;;11.66;66.44
48882;BME280;57063;51.406;-2.402;2023-03-25T01:31:51;98888.97;;;11.70;65.47
48882;BME280;57063;51.406;-2.402;2023-03-25T01:34:18;98876.34;;;11.77;65.75
48882;BME280;57063;51.406;-2.402;2023-03-25T01:36:43;98899.06;;;11.64;66.71
48882;BME280;57063;51.406;-2.402;2023-03-25T01:39:11;98877.94;;;11.49;65.56
48882;BME280;57063;51.406;-2.402;2023-03-25T01:41:38;98897.28;;;11.64;65.52
48882;BME280;57063;51.406;-2.402;2023-03-25T01:46:30;98897.53;;;11.51;65.34
48882;BME280;57063;51.406;-2.402;2023-03-25T01:48:56;98888.66;;;11.44;65.48
48882;BME280;57063;51.406;-2.402;2023-03-25T01:51:26;98883.78;;;11.41;65.74
48882;BME280;57063;51.406;-2.402;2023-03-25T01:53:54;98901.78;;;11.22;66.19
48882;BME280;57063;51.406;-2.402;2023-03-25T01:56:26;98919.81;;;11.52;65.91
48882;BME280;57063;51.406;-2.402;2023-03-25T01:58:56;98917.94;;;11.54;66.13
48882;BME280;57063;51.406;-2.402;2023-03-25T02:01:22;98900.09;;;11.42;66.00
48882;BME280;57063;51.406;-2.402;2023-03-25T02:03:53;98911.28;;;11.62;66.12
48882;BME280;57063;51.406;-2.402;2023-03-25T02:06:31;98921.59;;;11.52;66.66
48882;BME280;57063;51.406;-2.402;2023-03-25T02:08:59;98929.00;;;11.76;66.39
48882;BME280;57063;51.406;-2.402;2023-03-25T02:11:26;98929.38;;;11.62;67.42
48882;BME280;57063;51.406;-2.402;2023-03-25T02:13:54;98946.09;;;11.98;67.29
48882;BME280;57063;51.406;-2.402;2023-03-25T02:22:15;98952.75;;;12.01;66.35
48882;BME280;57063;51.406;-2.402;2023-03-25T02:27:28;98951.84;;;11.71;66.63
48882;BME280;57063;51.406;-2.402;2023-03-25T02:40:56;98948.78;;;11.46;72.57
48882;BME280;57063;51.406;-2.402;2023-03-25T02:43:40;98960.38;;;11.62;74.15
48882;BME280;57063;51.406;-2.402;2023-03-25T02:46:11;98939.38;;;11.45;74.39
48882;BME280;57063;51.406;-2.402;2023-03-25T02:51:34;98945.84;;;11.70;71.73
48882;BME280;57063;51.406;-2.402;2023-03-25T02:54:10;98952.25;;;11.66;70.38
48882;BME280;57063;51.406;-2.402;2023-03-25T02:56:38;98958.53;;;11.73;70.33
48882;BME280;57063;51.406;-2.402;2023-03-25T02:59:05;98978.03;;;11.87;70.02
48882;BME280;57063;51.406;-2.402;2023-03-25T03:01:32;98990.19;;;11.66;70.08
48882;BME280;57063;51.406;-2.402;2023-03-25T03:03:59;98962.63;;;11.45;68.82
48882;BME280;57063;51.406;-2.402;2023-03-25T03:06:25;98981.13;;;11.81;69.13
48882;BME280;57063;51.406;-2.402;2023-03-25T03:08:59;98997.94;;;11.66;69.32
48882;BME280;57063;51.406;-2.402;2023-03-25T03:21:55;98982.63;;;11.84;67.53
48882;BME280;57063;51.406;-2.402;2023-03-25T03:24:35;99014.78;;;11.91;67.06
48882;BME280;57063;51.406;-2.402;2023-03-25T03:27:13;99014.28;;;12.07;66.07
48882;BME280;57063;51.406;-2.402;2023-03-25T03:29:47;99026.38;;;11.96;66.41
48882;BME280;57063;51.406;-2.402;2023-03-25T03:35:03;99000.72;;;12.34;65.00
48882;BME280;57063;51.406;-2.402;2023-03-25T03:37:34;98993.06;;;12.13;65.55
48882;BME280;57063;51.406;-2.402;2023-03-25T03:40:03;98983.97;;;11.78;65.92
48882;BME280;57063;51.406;-2.402;2023-03-25T03:42:36;99028.22;;;12.25;65.32
48882;BME280;57063;51.406;-2.402;2023-03-25T03:45:08;99013.97;;;11.90;65.42
48882;BME280;57063;51.406;-2.402;2023-03-25T03:47:41;98987.16;;;11.91;65.11
48882;BME280;57063;51.406;-2.402;2023-03-25T03:50:10;98992.75;;;11.96;65.36
48882;BME280;57063;51.406;-2.402;2023-03-25T03:52:41;99037.03;;;12.13;64.41
48882;BME280;57063;51.406;-2.402;2023-03-25T03:55:16;98976.38;;;11.86;64.63
48882;BME280;57063;51.406;-2.402;2023-03-25T03:57:52;99022.22;;;11.84;65.89
48882;BME280;57063;51.406;-2.402;2023-03-25T04:00:26;99010.19;;;12.04;65.15
48882;BME280;57063;51.406;-2.402;2023-03-25T04:05:28;98989.59;;;11.52;65.96
48882;BME280;57063;51.406;-2.402;2023-03-25T04:08:01;99008.78;;;11.60;65.45
48882;BME280;57063;51.406;-2.402;2023-03-25T04:10:42;99016.63;;;11.79;65.64
48882;BME280;57063;51.406;-2.402;2023-03-25T04:13:12;99040.84;;;11.78;65.40
48882;BME280;57063;51.406;-2.402;2023-03-25T04:15:39;99002.72;;;11.80;65.26
48882;BME280;57063;51.406;-2.402;2023-03-25T04:18:05;99019.31;;;11.37;66.86
48882;BME280;57063;51.406;-2.402;2023-03-25T04:20:32;99033.50;;;11.52;66.79
48882;BME280;57063;51.406;-2.402;2023-03-25T04:23:02;99039.72;;;11.71;66.25
48882;BME280;57063;51.406;-2.402;2023-03-25T04:25:30;99037.56;;;11.76;65.75
48882;BME280;57063;51.406;-2.402;2023-03-25T04:27:57;99028.31;;;11.73;65.31
48882;BME280;57063;51.406;-2.402;2023-03-25T04:30:25;99049.53;;;11.77;65.68
48882;BME280;57063;51.406;-2.402;2023-03-25T04:32:51;99028.81;;;11.67;65.49
48882;BME280;57063;51.406;-2.402;2023-03-25T04:35:18;99037.38;;;11.37;65.93
48882;BME280;57063;51.406;-2.402;2023-03-25T04:37:45;99071.56;;;11.50;65.86
48882;BME280;57063;51.406;-2.402;2023-03-25T04:40:15;99008.38;;;11.54;65.60
48882;BME280;57063;51.406;-2.402;2023-03-25T04:42:44;99045.50;;;11.53;65.94
48882;BME280;57063;51.406;-2.402;2023-03-25T04:45:11;99062.94;;;11.92;64.49
48882;BME280;57063;51.406;-2.402;2023-03-25T04:47:41;99065.41;;;11.93;64.84
48882;BME280;57063;51.406;-2.402;2023-03-25T04:52:46;99067.91;;;11.53;64.31
48882;BME280;57063;51.406;-2.402;2023-03-25T04:55:12;99050.13;;;11.60;65.55
48882;BME280;57063;51.406;-2.402;2023-03-25T04:57:43;99064.66;;;12.03;63.83
48882;BME280;57063;51.406;-2.402;2023-03-25T05:00:09;99047.53;;;11.81;63.78
48882;BME280;57063;51.406;-2.402;2023-03-25T05:02:35;99049.59;;;11.35;65.49
48882;BME280;57063;51.406;-2.402;2023-03-25T05:05:02;99057.72;;;11.82;64.44
48882;BME280;57063;51.406;-2.402;2023-03-25T05:07:29;99086.22;;;12.32;62.94
48882;BME280;57063;51.406;-2.402;2023-03-25T05:09:54;99066.69;;;11.78;63.56
48882;BME280;57063;51.406;-2.402;2023-03-25T05:12:21;99068.59;;;11.55;63.82
48882;BME280;57063;51.406;-2.402;2023-03-25T05:14:47;99072.16;;;11.85;63.65
48882;BME280;57063;51.406;-2.402;2023-03-25T05:17:12;99066.69;;;12.09;62.96
48882;BME280;57063;51.406;-2.402;2023-03-25T05:19:38;99083.28;;;11.75;63.75
48882;BME280;57063;51.406;-2.402;2023-03-25T05:22:08;99088.00;;;11.91;63.14
48882;BME280;57063;51.406;-2.402;2023-03-25T05:24:33;99088.28;;;11.46;64.84
48882;BME280;57063;51.406;-2.402;2023-03-25T05:26:58;99088.84;;;11.71;63.62
48882;BME280;57063;51.406;-2.402;2023-03-25T05:29:26;99092.41;;;11.79;64.11
48882;BME280;57063;51.406;-2.402;2023-03-25T05:31:52;99095.78;;;11.80;64.14
48882;BME280;57063;51.406;-2.402;2023-03-25T05:34:17;99077.53;;;11.72;64.40
48882;BME280;57063;51.406;-2.402;2023-03-25T05:36:44;99108.81;;;11.69;64.37
48882;BME280;57063;51.406;-2.402;2023-03-25T05:39:10;99099.13;;;11.40;67.46
48882;BME280;57063;51.406;-2.402;2023-03-25T05:41:35;99107.78;;;11.81;68.29
48882;BME280;57063;51.406;-2.402;2023-03-25T05:44:05;99077.38;;;11.64;67.94
48882;BME280;57063;51.406;-2.402;2023-03-25T05:46:31;99117.28;;;11.50;69.01
48882;BME280;57063;51.406;-2.402;2023-03-25T05:48:57;99094.91;;;11.39;70.07
48882;BME280;57063;51.406;-2.402;2023-03-25T05:51:25;99086.19;;;11.61;70.44
48882;BME280;57063;51.406;-2.402;2023-03-25T05:53:51;99114.56;;;11.30;71.28
48882;BME280;57063;51.406;-2.402;2023-03-25T05:56:18;99105.84;;;11.52;70.52
48882;BME280;57063;51.406;-2.402;2023-03-25T05:58:49;99122.34;;;10.98;71.57
48882;BME280;57063;51.406;-2.402;2023-03-25T06:01:16;99124.00;;;11.20;71.64
48882;BME280;57063;51.406;-2.402;2023-03-25T06:03:42;99111.31;;;10.96;74.03
48882;BME280;57063;51.406;-2.402;2023-03-25T06:06:09;99133.28;;;11.11;73.67
48882;BME280;57063;51.406;-2.402;2023-03-25T06:08:45;99140.47;;;11.40;72.17
48882;BME280;57063;51.406;-2.402;2023-03-25T06:11:11;99134.25;;;11.10;72.15
48882;BME280;57063;51.406;-2.402;2023-03-25T06:13:38;99172.19;;;11.31;72.17
48882;BME280;57063;51.406;-2.402;2023-03-25T06:16:05;99114.59;;;10.98;72.09
48882;BME280;57063;51.406;-2.402;2023-03-25T06:18:33;99136.84;;;11.10;73.50
48882;BME280;57063;51.406;-2.402;2023-03-25T06:20:58;99135.25;;;11.51;72.47
48882;BME280;57063;51.406;-2.402;2023-03-25T06:23:24;99122.31;;;11.51;71.93
48882;BME280;57063;51.406;-2.402;2023-03-25T06:25:51;99154.03;;;11.21;74.80
48882;BME280;57063;51.406;-2.402;2023-03-25T06:28:17;99156.41;;;11.24;76.43
48882;BME280;57063;51.406;-2.402;2023-03-25T06:30:44;99157.25;;;11.13;74.89
48882;BME280;57063;51.406;-2.402;2023-03-25T06:33:11;99126.94;;;11.16;73.87
48882;BME280;57063;51.406;-2.402;2023-03-25T06:35:41;99146.22;;;11.11;73.26
48882;BME280;57063;51.406;-2.402;2023-03-25T06:38:09;99160.03;;;11.22;72.11
48882;BME280;57063;51.406;-2.402;2023-03-25T06:40:38;99171.28;;;11.74;69.75
48882;BME280;57063;51.406;-2.402;2023-03-25T06:43:04;99175.81;;;11.40;71.18
48882;BME280;57063;51.406;-2.402;2023-03-25T06:45:31;99193.41;;;11.67;70.54
48882;BME280;57063;51.406;-2.402;2023-03-25T06:47:57;99179.13;;;10.98;71.70
48882;BME280;57063;51.406;-2.402;2023-03-25T06:50:22;99210.41;;;11.48;71.11
48882;BME280;57063;51.406;-2.402;2023-03-25T06:52:48;99202.06;;;11.56;70.72
48882;BME280;57063;51.406;-2.402;2023-03-25T06:55:13;99195.44;;;11.84;69.76
48882;BME280;57063;51.406;-2.402;2023-03-25T06:57:40;99197.78;;;11.87;68.69
48882;BME280;57063;51.406;-2.402;2023-03-25T07:00:06;99205.06;;;11.82;69.27
48882;BME280;57063;51.406;-2.402;2023-03-25T07:02:33;99233.22;;;12.17;67.84
48882;BME280;57063;51.406;-2.402;2023-03-25T07:04:58;99220.41;;;12.16;68.66
48882;BME280;57063;51.406;-2.402;2023-03-25T07:07:24;99222.41;;;12.33;68.83
48882;BME280;57063;51.406;-2.402;2023-03-25T07:09:51;99247.56;;;12.01;69.90
48882;BME280;57063;51.406;-2.402;2023-03-25T07:12:16;99241.53;;;11.79;69.51
48882;BME280;57063;51.406;-2.402;2023-03-25T07:14:42;99226.31;;;11.65;70.34
48882;BME280;57063;51.406;-2.402;2023-03-25T07:17:08;99237.38;;;12.70;67.52
48882;BME280;57063;51.406;-2.402;2023-03-25T07:19:33;99228.84;;;13.39;64.05
48882;BME280;57063;51.406;-2.402;2023-03-25T07:21:59;99238.44;;;12.98;64.51
48882;BME280;57063;51.406;-2.402;2023-03-25T07:24:24;99260.00;;;13.09;64.22
48882;BME280;57063;51.406;-2.402;2023-03-25T07:26:50;99260.75;;;13.88;62.51
48882;BME280;57063;51.406;-2.402;2023-03-25T07:29:15;99263.22;;;14.57;59.75
48882;BME280;57063;51.406;-2.402;2023-03-25T07:31:41;99253.41;;;13.74;61.77
48882;BME280;57063;51.406;-2.402;2023-03-25T07:34:09;99250.78;;;12.75;65.25
48882;BME280;57063;51.406;-2.402;2023-03-25T07:36:35;99272.00;;;13.10;64.04
48882;BME280;57063;51.406;-2.402;2023-03-25T07:39:00;99274.41;;;13.42;63.03
48882;BME280;57063;51.406;-2.402;2023-03-25T07:41:26;99257.50;;;12.88;64.99
48882;BME280;57063;51.406;-2.402;2023-03-25T07:43:54;99281.75;;;12.87;65.42
48882;BME280;57063;51.406;-2.402;2023-03-25T07:46:19;99262.13;;;12.94;65.58
48882;BME280;57063;51.406;-2.402;2023-03-25T07:48:44;99267.13;;;12.76;66.03
48882;BME280;57063;51.406;-2.402;2023-03-25T07:51:10;99283.00;;;13.02;64.79
48882;BME280;57063;51.406;-2.402;2023-03-25T07:53:36;99284.47;;;12.95;64.95
48882;BME280;57063;51.406;-2.402;2023-03-25T07:56:04;99271.75;;;13.13;64.69
48882;BME280;57063;51.406;-2.402;2023-03-25T07:58:29;99276.03;;;13.43;63.73
48882;BME280;57063;51.406;-2.402;2023-03-25T08:00:56;99296.78;;;12.93;65.59
48882;BME280;57063;51.406;-2.402;2023-03-25T08:03:22;99280.72;;;12.37;65.85
48882;BME280;57063;51.406;-2.402;2023-03-25T08:05:47;99317.09;;;12.97;64.68
48882;BME280;57063;51.406;-2.402;2023-03-25T08:08:13;99308.56;;;13.26;63.82
48882;BME280;57063;51.406;-2.402;2023-03-25T08:10:41;99319.19;;;13.13;62.86
48882;BME280;57063;51.406;-2.402;2023-03-25T08:13:11;99339.78;;;13.75;61.98
48882;BME280;57063;51.406;-2.402;2023-03-25T08:15:37;99321.00;;;13.22;62.72
48882;BME280;57063;51.406;-2.402;2023-03-25T08:18:03;99337.06;;;14.15;60.45
48882;BME280;57063;51.406;-2.402;2023-03-25T08:20:30;99327.06;;;15.24;55.26
48882;BME280;57063;51.406;-2.402;2023-03-25T08:22:56;99351.19;;;15.07;56.55
48882;BME280;57063;51.406;-2.402;2023-03-25T08:25:22;99344.97;;;14.90;56.87
48882;BME280;57063;51.406;-2.402;2023-03-25T08:27:48;99332.78;;;17.22;52.58
48882;BME280;57063;51.406;-2.402;2023-03-25T08:30:14;99323.84;;;16.38;52.22
48882;BME280;57063;51.406;-2.402;2023-03-25T08:32:40;99369.50;;;15.43;54.96
48882;BME280;57063;51.406;-2.402;2023-03-25T08:35:06;99345.50;;;16.12;53.12
48882;BME280;57063;51.406;-2.402;2023-03-25T08:37:32;99372.25;;;16.22;53.65
48882;BME280;57063;51.406;-2.402;2023-03-25T08:40:01;99354.44;;;15.64;54.16
48882;BME280;57063;51.406;-2.402;2023-03-25T08:42:27;99360.00;;;14.39;58.06
48882;BME280;57063;51.406;-2.402;2023-03-25T08:44:53;99389.31;;;15.16;56.71
48882;BME280;57063;51.406;-2.402;2023-03-25T08:47:21;99374.31;;;14.43;57.70
48882;BME280;57063;51.406;-2.402;2023-03-25T08:49:47;99388.16;;;14.15;59.44
48882;BME280;57063;51.406;-2.402;2023-03-25T08:52:12;99359.97;;;15.06;56.95
48882;BME280;57063;51.406;-2.402;2023-03-25T08:54:38;99390.81;;;15.18;56.19
48882;BME280;57063;51.406;-2.402;2023-03-25T08:57:03;99389.63;;;15.40;54.90
48882;BME280;57063;51.406;-2.402;2023-03-25T08:59:30;99408.75;;;17.27;50.98
48882;BME280;57063;51.406;-2.402;2023-03-25T09:01:55;99395.81;;;17.68;50.77
48882;BME280;57063;51.406;-2.402;2023-03-25T09:04:20;99413.44;;;16.09;53.65
48882;BME280;57063;51.406;-2.402;2023-03-25T09:06:46;99423.25;;;15.52;55.38
48882;BME280;57063;51.406;-2.402;2023-03-25T09:09:14;99424.47;;;15.48;55.48
48882;BME280;57063;51.406;-2.402;2023-03-25T09:11:39;99421.25;;;16.09;54.35
48882;BME280;57063;51.406;-2.402;2023-03-25T09:14:05;99417.97;;;16.61;52.78
48882;BME280;57063;51.406;-2.402;2023-03-25T09:16:31;99424.97;;;21.49;42.16
48882;BME280;57063;51.406;-2.402;2023-03-25T09:18:57;99418.44;;;17.85;48.76
48882;BME280;57063;51.406;-2.402;2023-03-25T09:21:22;99429.22;;;16.25;52.19
48882;BME280;57063;51.406;-2.402;2023-03-25T09:23:48;99414.53;;;15.71;54.01
48882;BME280;57063;51.406;-2.402;2023-03-25T09:26:13;99426.38;;;14.51;57.10
48882;BME280;57063;51.406;-2.402;2023-03-25T09:28:39;99448.69;;;15.20;55.82
48882;BME280;57063;51.406;-2.402;2023-03-25T09:31:05;99419.97;;;14.55;57.81
48882;BME280;57063;51.406;-2.402;2023-03-25T09:33:32;99448.78;;;14.33;58.55
48882;BME280;57063;51.406;-2.402;2023-03-25T09:35:57;99433.34;;;14.12;58.91
48882;BME280;57063;51.406;-2.402;2023-03-25T09:38:23;99435.75;;;15.01;57.20
48882;BME280;57063;51.406;-2.402;2023-03-25T09:40:48;99447.28;;;17.41;50.80
48882;BME280;57063;51.406;-2.402;2023-03-25T09:43:23;99478.34;;;18.11;48.48
48882;BME280;57063;51.406;-2.402;2023-03-25T09:45:54;99454.38;;;17.65;49.02
48882;BME280;57063;51.406;-2.402;2023-03-25T09:48:36;99487.09;;;18.94;47.54
48882;BME280;57063;51.406;-2.402;2023-03-25T09:53:42;99505.31;;;22.74;39.79
48882;BME280;57063;51.406;-2.402;2023-03-25T09:56:20;99493.31;;;28.44;30.42
48882;BME280;57063;51.406;-2.402;2023-03-25T09:58:53;99492.63;;;22.84;38.73
48882;BME280;57063;51.406;-2.402;2023-03-25T10:01:38;99478.81;;;19.46;44.72
48882;BME280;57063;51.406;-2.402;2023-03-25T10:09:30;99520.88;;;20.92;43.49
48882;BME280;57063;51.406;-2.402;2023-03-25T10:22:31;99529.91;;;20.13;43.88
48882;BME280;57063;51.406;-2.402;2023-03-25T10:25:03;99546.09;;;19.05;45.75
48882;BME280;57063;51.406;-2.402;2023-03-25T10:27:43;99597.97;;;20.29;44.71
48882;BME280;57063;51.406;-2.402;2023-03-25T10:30:13;99554.88;;;21.01;43.73
48882;BME280;57063;51.406;-2.402;2023-03-25T10:32:45;99575.50;;;19.95;44.44
48882;BME280;57063;51.406;-2.402;2023-03-25T10:35:34;99544.22;;;18.48;47.42
48882;BME280;57063;51.406;-2.402;2023-03-25T10:38:12;99554.84;;;18.54;47.20
48882;BME280;57063;51.406;-2.402;2023-03-25T10:40:41;99566.69;;;20.59;44.93
48882;BME280;57063;51.406;-2.402;2023-03-25T10:43:26;99550.13;;;21.19;42.52
48882;BME280;57063;51.406;-2.402;2023-03-25T10:46:03;99553.38;;;17.59;49.07
48882;BME280;57063;51.406;-2.402;2023-03-25T10:48:31;99547.84;;;17.09;50.69
48882;BME280;57063;51.406;-2.402;2023-03-25T10:51:09;99550.50;;;16.00;55.64
48882;BME280;57063;51.406;-2.402;2023-03-25T10:53:36;99557.91;;;16.68;52.69
48882;BME280;57063;51.406;-2.402;2023-03-25T10:56:03;99577.66;;;17.59;50.04
48882;BME280;57063;51.406;-2.402;2023-03-25T10:58:30;99588.19;;;20.77;44.34
48882;BME280;57063;51.406;-2.402;2023-03-25T11:00:58;99563.31;;;19.71;46.47
48882;BME280;57063;51.406;-2.402;2023-03-25T11:03:29;99569.56;;;20.01;43.26
48882;BME280;57063;51.406;-2.402;2023-03-25T11:05:56;99565.28;;;24.73;37.03
48882;BME280;57063;51.406;-2.402;2023-03-25T11:08:21;99452.06;;;25.43;33.81
48882;BME280;57063;51.406;-2.402;2023-03-25T11:10:48;99450.88;;;26.98;31.96
48882;BME280;57063;51.406;-2.402;2023-03-25T11:13:23;99562.19;;;27.53;31.81
48882;BME280;57063;51.406;-2.402;2023-03-25T11:15:51;99556.19;;;27.46;31.00
48882;BME280;57063;51.406;-2.402;2023-03-25T11:18:29;99382.59;;;27.97;30.04
48882;BME280;57063;51.406;-2.402;2023-03-25T11:21:04;99535.34;;;28.47;28.97
48882;BME280;57063;51.406;-2.402;2023-03-25T11:23:34;99564.19;;;27.14;31.22
48882;BME280;57063;51.406;-2.402;2023-03-25T11:26:21;99447.84;;;26.94;30.85
48882;BME280;57063;51.406;-2.402;2023-03-25T11:28:51;99441.94;;;25.40;32.55
48882;BME280;57063;51.406;-2.402;2023-03-25T11:31:20;99560.81;;;27.07;30.93
48882;BME280;57063;51.406;-2.402;2023-03-25T11:36:32;99541.28;;;26.44;31.62
48882;BME280;57063;51.406;-2.402;2023-03-25T11:39:24;99523.47;;;27.89;29.79
48882;BME280;57063;51.406;-2.402;2023-03-25T11:41:51;99613.81;;;28.96;29.18
48882;BME280;57063;51.406;-2.402;2023-03-25T11:44:27;99596.94;;;27.45;29.99
48882;BME280;57063;51.406;-2.402;2023-03-25T11:46:57;99615.34;;;27.40;30.80
48882;BME280;57063;51.406;-2.402;2023-03-25T11:49:25;99615.66;;;28.84;29.21
48882;BME280;57063;51.406;-2.402;2023-03-25T11:52:04;99621.44;;;26.90;31.36
48882;BME280;57063;51.406;-2.402;2023-03-25T11:54:33;99630.06;;;27.98;30.21
48882;BME280;57063;51.406;-2.402;2023-03-25T11:57:02;99609.78;;;27.66;31.36
48882;BME280;57063;51.406;-2.402;2023-03-25T11:59:38;99618.81;;;28.93;29.23
48882;BME280;57063;51.406;-2.402;2023-03-25T12:02:23;99633.25;;;27.44;30.84
48882;BME280;57063;51.406;-2.402;2023-03-25T12:07:45;99614.94;;;29.66;28.93
48882;BME280;57063;51.406;-2.402;2023-03-25T12:13:06;99625.16;;;28.31;29.58
48882;BME280;57063;51.406;-2.402;2023-03-25T12:15:42;99608.41;;;27.82;30.27
48882;BME280;57063;51.406;-2.402;2023-03-25T12:23:35;99641.16;;;28.25;29.60
48882;BME280;57063;51.406;-2.402;2023-03-25T12:26:16;99634.63;;;26.20;32.98
48882;BME280;57063;51.406;-2.402;2023-03-25T12:32:07;99631.28;;;26.31;31.25
48882;BME280;57063;51.406;-2.402;2023-03-25T12:40:39;99631.31;;;24.31;34.13
48882;BME280;57063;51.406;-2.402;2023-03-25T12:43:11;99612.84;;;24.31;33.56
48882;BME280;57063;51.406;-2.402;2023-03-25T12:48:28;99646.16;;;21.28;36.99
48882;BME280;57063;51.406;-2.402;2023-03-25T12:51:22;99618.75;;;21.69;35.76
48882;BME280;57063;51.406;-2.402;2023-03-25T12:54:04;99599.84;;;20.04;37.96
48882;BME280;57063;51.406;-2.402;2023-03-25T12:57:05;99639.00;;;18.66;41.09
48882;BME280;57063;51.406;-2.402;2023-03-25T12:59:41;99639.22;;;17.96;41.73
48882;BME280;57063;51.406;-2.402;2023-03-25T13:02:22;99637.13;;;17.11;42.82
48882;BME280;57063;51.406;-2.402;2023-03-25T13:05:19;99616.81;;;16.79;45.06
48882;BME280;57063;51.406;-2.402;2023-03-25T13:08:11;99639.19;;;16.72;45.78
48882;BME280;57063;51.406;-2.402;2023-03-25T13:10:39;99605.22;;;17.36;45.00
48882;BME280;57063;51.406;-2.402;2023-03-25T13:13:16;99613.81;;;18.65;43.72
48882;BME280;57063;51.406;-2.402;2023-03-25T13:16:01;99618.53;;;18.03;44.31
48882;BME280;57063;51.406;-2.402;2023-03-25T13:18:34;99596.47;;;18.39;43.69
48882;BME280;57063;51.406;-2.402;2023-03-25T13:21:05;99593.88;;;18.48;44.18
48882;BME280;57063;51.406;-2.402;2023-03-25T13:23:33;99619.78;;;18.84;42.88
48882;BME280;57063;51.406;-2.402;2023-03-25T13:28:44;99609.84;;;17.94;44.70
48882;BME280;57063;51.406;-2.402;2023-03-25T13:31:25;99599.50;;;17.84;43.76
48882;BME280;57063;51.406;-2.402;2023-03-25T13:46:14;99616.94;;;17.58;45.27
48882;BME280;57063;51.406;-2.402;2023-03-25T13:51:28;99620.28;;;17.24;46.34
48882;BME280;57063;51.406;-2.402;2023-03-25T13:54:03;99611.53;;;18.11;45.11
48882;BME280;57063;51.406;-2.402;2023-03-25T13:56:46;99601.97;;;18.28;44.24
48882;BME280;57063;51.406;-2.402;2023-03-25T13:59:54;99586.13;;;17.87;43.95
48882;BME280;57063;51.406;-2.402;2023-03-25T14:05:39;99621.41;;;17.91;43.36
48882;BME280;57063;51.406;-2.402;2023-03-25T14:13:44;99596.13;;;17.66;42.77
48882;BME280;57063;51.406;-2.402;2023-03-25T14:16:14;99589.25;;;17.65;42.96
48882;BME280;57063;51.406;-2.402;2023-03-25T14:18:42;99604.81;;;17.04;43.74
48882;BME280;57063;51.406;-2.402;2023-03-25T14:21:29;99604.59;;;16.80;44.55
48882;BME280;57063;51.406;-2.402;2023-03-25T14:26:30;99612.56;;;16.78;43.68
48882;BME280;57063;51.406;-2.402;2023-03-25T14:29:02;99609.72;;;17.25;43.29
48882;BME280;57063;51.406;-2.402;2023-03-25T14:31:31;99620.38;;;17.32;43.16
48882;BME280;57063;51.406;-2.402;2023-03-25T14:42:01;99616.75;;;17.07;44.00
48882;BME280;57063;51.406;-2.402;2023-03-25T14:44:32;99602.06;;;16.88;43.37
48882;BME280;57063;51.406;-2.402;2023-03-25T14:46:59;99605.94;;;17.46;43.14
48882;BME280;57063;51.406;-2.402;2023-03-25T14:49:46;99604.22;;;17.54;43.70
48882;BME280;57063;51.406;-2.402;2023-03-25T14:52:15;99617.59;;;17.33;43.71
48882;BME280;57063;51.406;-2.402;2023-03-25T14:54:43;99589.84;;;17.06;44.42
48882;BME280;57063;51.406;-2.402;2023-03-25T14:57:18;99620.38;;;16.96;45.90
48882;BME280;57063;51.406;-2.402;2023-03-25T14:59:57;99589.91;;;16.61;45.83
48882;BME280;57063;51.406;-2.402;2023-03-25T15:02:34;99599.28;;;16.72;45.52
48882;BME280;57063;51.406;-2.402;2023-03-25T15:05:12;99615.81;;;16.35;45.91
48882;BME280;57063;51.406;-2.402;2023-03-25T15:07:49;99597.69;;;16.43;46.29